createdAt,value
2018-07-26T00:01:26.956Z,92.90
2018-07-26T00:05:07.355Z,93.40
2018-07-26T00:08:18.055Z,93.00
2018-07-26T00:11:28.276Z,93.50
2018-07-26T00:14:39.021Z,93.50
2018-07-26T00:17:49.576Z,93.70
2018-07-26T00:21:00.330Z,93.70
2018-07-26T00:24:10.286Z,94.00
2018-07-26T00:27:21.701Z,94.10
2018-07-26T00:30:31.899Z,94.10
2018-07-26T00:33:42.701Z,94.60
2018-07-26T00:36:53.182Z,94.20
2018-07-26T00:40:03.396Z,95.10
2018-07-26T00:43:13.630Z,95.00
2018-07-26T00:46:23.566Z,95.10
2018-07-26T00:49:33.811Z,95.20
2018-07-26T00:52:44.514Z,95.00
2018-07-26T00:55:55.499Z,95.50
2018-07-26T00:59:06.383Z,95.50
2018-07-26T01:02:17.166Z,95.90
2018-07-26T01:05:27.256Z,95.80
2018-07-26T01:08:37.613Z,96.20
2018-07-26T01:11:48.407Z,96.30
2018-07-26T01:14:59.262Z,96.20
2018-07-26T01:18:09.698Z,96.20
2018-07-26T01:21:19.567Z,96.60
2018-07-26T01:24:29.550Z,96.10
2018-07-26T01:27:40.399Z,96.30
2018-07-26T01:30:51.143Z,96.60
2018-07-26T01:34:01.946Z,96.40
2018-07-26T01:37:12.770Z,96.70
2018-07-26T01:40:23.691Z,97.10
2018-07-26T01:43:48.808Z,96.60
2018-07-26T01:46:59.335Z,97.20
2018-07-26T01:50:09.786Z,97.00
2018-07-26T01:53:20.310Z,96.90
2018-07-26T01:56:30.919Z,97.20
2018-07-26T01:59:41.655Z,97.80
2018-07-26T02:02:52.407Z,97.60
2018-07-26T02:06:03.376Z,97.30
2018-07-26T02:09:13.953Z,97.70
2018-07-26T02:12:25.232Z,97.90
2018-07-26T02:15:36.271Z,98.10
2018-07-26T02:18:46.763Z,97.80
2018-07-26T02:21:57.638Z,98.00
2018-07-26T02:25:08.303Z,97.50
2018-07-26T02:28:18.933Z,97.50
2018-07-26T02:31:28.926Z,97.90
2018-07-26T02:34:39.803Z,98.30
2018-07-26T02:37:49.666Z,98.30
2018-07-26T02:40:59.639Z,98.60
2018-07-26T02:44:10.061Z,98.90
2018-07-26T02:47:20.415Z,99.00
2018-07-26T02:50:30.805Z,99.40
2018-07-26T02:53:41.656Z,99.10
2018-07-26T02:56:52.191Z,99.10
2018-07-26T03:00:02.605Z,99.70
2018-07-26T03:03:13.356Z,99.90
2018-07-26T03:06:23.375Z,99.60
2018-07-26T03:09:34.046Z,99.90
2018-07-26T03:12:44.284Z,99.90
2018-07-26T03:15:54.883Z,99.90
2018-07-26T03:19:04.999Z,99.90
2018-07-26T03:22:15.591Z,99.90
2018-07-26T03:25:26.163Z,99.90
2018-07-26T03:28:36.472Z,99.90
2018-07-26T03:31:47.276Z,99.90
2018-07-26T03:34:57.425Z,99.90
2018-07-26T03:38:08.486Z,99.90
2018-07-26T03:44:29.569Z,99.90
2018-07-26T03:47:40.461Z,99.90
2018-07-26T03:50:51.407Z,99.90
2018-07-26T03:54:02.038Z,99.90
2018-07-26T03:57:13.056Z,99.90
2018-07-26T04:00:23.223Z,99.90
2018-07-26T04:03:33.528Z,99.90
2018-07-26T04:06:55.162Z,99.90
2018-07-26T04:10:08.029Z,99.90
2018-07-26T04:13:18.460Z,99.90
2018-07-26T04:16:28.432Z,99.90
2018-07-26T04:19:38.612Z,99.90
2018-07-26T04:22:49.208Z,99.90
2018-07-26T04:29:09.532Z,99.90
2018-07-26T04:32:19.830Z,99.90
2018-07-26T04:35:30.406Z,99.90
2018-07-26T04:38:41.583Z,99.90
2018-07-26T04:41:52.038Z,99.90
2018-07-26T04:48:12.505Z,99.90
2018-07-26T04:51:22.515Z,99.90
2018-07-26T04:54:33.334Z,99.90
2018-07-26T04:57:43.768Z,99.90
2018-07-26T05:00:54.739Z,99.90
2018-07-26T05:04:05.475Z,99.90
2018-07-26T05:07:15.842Z,99.90
2018-07-26T05:10:25.907Z,99.90
2018-07-26T05:13:36.715Z,99.90
2018-07-26T05:16:46.949Z,99.90
2018-07-26T05:19:57.526Z,99.90
2018-07-26T05:23:08.153Z,99.90
2018-07-26T05:26:19.370Z,99.90
2018-07-26T05:29:30.134Z,99.90
2018-07-26T05:32:40.950Z,99.90
2018-07-26T05:35:51.606Z,99.90
2018-07-26T05:39:01.807Z,99.90
2018-07-26T05:42:11.738Z,99.90
2018-07-26T05:45:22.887Z,99.90
2018-07-26T05:48:33.632Z,99.90
2018-07-26T05:51:43.589Z,99.90
2018-07-26T05:54:53.972Z,99.90
2018-07-26T05:58:04.950Z,99.90
2018-07-26T06:01:15.602Z,99.90
2018-07-26T06:04:26.095Z,99.90
2018-07-26T06:07:36.254Z,99.90
2018-07-26T06:10:46.346Z,99.90
2018-07-26T06:13:56.517Z,99.90
2018-07-26T06:17:06.410Z,99.90
2018-07-26T06:20:17.083Z,99.90
2018-07-26T06:23:26.717Z,99.90
2018-07-26T06:26:36.574Z,99.90
2018-07-26T06:29:46.725Z,99.90
2018-07-26T06:32:56.507Z,99.90
2018-07-26T06:36:06.546Z,99.70
2018-07-26T06:39:16.263Z,99.70
2018-07-26T06:42:26.179Z,99.70
2018-07-26T06:45:36.301Z,99.60
2018-07-26T06:48:46.157Z,99.20
2018-07-26T06:51:56.429Z,98.90
2018-07-26T06:55:06.916Z,99.00
2018-07-26T06:58:17.140Z,98.90
2018-07-26T07:01:27.344Z,98.80
2018-07-26T07:04:37.872Z,98.90
2018-07-26T07:07:47.733Z,98.70
2018-07-26T07:10:57.834Z,98.40
2018-07-26T07:14:07.601Z,98.90
2018-07-26T07:17:18.343Z,98.50
2018-07-26T07:20:28.273Z,98.30
2018-07-26T07:23:38.326Z,98.20
2018-07-26T07:26:48.984Z,98.00
2018-07-26T07:29:58.765Z,98.20
2018-07-26T07:33:08.941Z,97.80
2018-07-26T07:36:19.700Z,97.20
2018-07-26T07:39:30.170Z,96.90
2018-07-26T07:42:43.028Z,96.70
2018-07-26T07:45:53.550Z,96.10
2018-07-26T07:49:03.924Z,95.10
2018-07-26T07:52:13.660Z,95.80
2018-07-26T07:55:23.586Z,95.20
2018-07-26T07:58:34.082Z,94.60
2018-07-26T08:01:43.889Z,94.30
2018-07-26T08:04:54.469Z,94.40
2018-07-26T08:08:04.373Z,93.80
2018-07-26T08:11:14.338Z,93.00
2018-07-26T08:14:24.146Z,91.60
2018-07-26T08:17:34.148Z,92.60
2018-07-26T08:20:44.282Z,92.20
2018-07-26T08:23:54.456Z,92.10
2018-07-26T08:27:04.775Z,92.30
2018-07-26T08:30:15.456Z,91.40
2018-07-26T08:33:25.424Z,91.40
2018-07-26T08:36:35.805Z,90.60
2018-07-26T08:39:46.067Z,90.30
2018-07-26T08:42:56.748Z,88.70
2018-07-26T08:46:07.122Z,88.30
2018-07-26T08:49:17.608Z,90.00
2018-07-26T08:52:27.980Z,87.50
2018-07-26T08:55:38.911Z,84.50
2018-07-26T08:58:49.764Z,85.80
2018-07-26T09:01:59.803Z,83.00
2018-07-26T09:05:09.729Z,80.50
2018-07-26T09:08:20.063Z,80.50
2018-07-26T09:11:30.148Z,81.20
2018-07-26T09:14:40.280Z,79.40
2018-07-26T09:17:50.046Z,78.90
2018-07-26T09:21:00.533Z,78.70
2018-07-26T09:24:10.385Z,78.90
2018-07-26T09:27:20.375Z,76.80
2018-07-26T09:30:30.739Z,75.60
2018-07-26T09:33:41.595Z,75.30
2018-07-26T09:36:52.129Z,73.70
2018-07-26T09:40:02.314Z,72.00
2018-07-26T09:43:12.435Z,72.50
2018-07-26T09:46:22.755Z,71.40
2018-07-26T09:49:33.385Z,70.00
2018-07-26T09:52:43.983Z,67.30
2018-07-26T09:55:53.965Z,65.20
2018-07-26T09:59:04.794Z,64.50
2018-07-26T10:02:14.630Z,61.80
2018-07-26T10:05:24.546Z,58.20
2018-07-26T10:08:34.546Z,63.10
2018-07-26T10:11:44.287Z,63.80
2018-07-26T10:14:54.766Z,61.60
2018-07-26T10:18:04.965Z,59.70
2018-07-26T10:21:14.934Z,61.40
2018-07-26T10:24:24.561Z,61.50
2018-07-26T10:27:34.640Z,59.80
2018-07-26T10:30:44.981Z,58.30
2018-07-26T10:33:55.114Z,60.90
2018-07-26T10:37:05.227Z,61.50
2018-07-26T10:40:15.131Z,61.50
2018-07-26T10:43:25.080Z,61.00
2018-07-26T10:46:35.044Z,61.50
2018-07-26T10:49:45.769Z,59.90
2018-07-26T10:52:55.387Z,60.10
2018-07-26T10:56:06.046Z,59.40
2018-07-26T10:59:16.620Z,58.90
2018-07-26T11:02:27.067Z,59.90
2018-07-26T11:05:36.949Z,59.10
2018-07-26T11:08:47.293Z,60.30
2018-07-26T11:11:57.354Z,59.60
2018-07-26T11:15:18.227Z,60.30
2018-07-26T11:18:28.888Z,58.60
2018-07-26T11:21:38.523Z,60.30
2018-07-26T11:24:53.691Z,58.10
2018-07-26T11:28:04.381Z,58.00
2018-07-26T11:31:14.043Z,58.10
2018-07-26T11:43:55.233Z,57.70
2018-07-26T11:47:05.842Z,58.60
2018-07-26T11:50:16.436Z,57.20
2018-07-26T11:53:26.997Z,57.30
2018-07-26T11:56:37.025Z,57.90
2018-07-26T11:59:47.327Z,57.50
2018-07-26T12:02:57.295Z,56.20
2018-07-26T12:06:07.283Z,56.60
2018-07-26T12:09:16.963Z,57.40
2018-07-26T12:12:27.424Z,56.80
2018-07-26T12:15:37.533Z,56.90
2018-07-26T12:18:47.849Z,56.90
2018-07-26T12:21:57.631Z,56.90
2018-07-26T12:25:08.374Z,56.50
2018-07-26T12:28:17.954Z,57.20
2018-07-26T12:31:28.049Z,57.10
2018-07-26T12:34:38.056Z,56.30
2018-07-26T12:37:48.279Z,56.00
2018-07-26T12:40:58.166Z,55.00
2018-07-26T12:44:08.605Z,55.10
2018-07-26T12:47:18.391Z,55.80
2018-07-26T12:50:28.428Z,55.40
2018-07-26T12:53:38.263Z,55.20
2018-07-26T12:56:48.357Z,55.80
2018-07-26T12:59:59.015Z,56.20
2018-07-26T13:03:09.771Z,56.00
2018-07-26T13:06:19.746Z,54.80
2018-07-26T13:09:29.632Z,53.70
2018-07-26T13:12:39.747Z,53.90
2018-07-26T13:15:50.305Z,53.50
2018-07-26T13:19:00.821Z,52.50
2018-07-26T13:22:10.936Z,52.10
2018-07-26T13:25:20.734Z,52.50
2018-07-26T13:28:30.915Z,52.60
2018-07-26T13:31:41.021Z,52.30
2018-07-26T13:34:51.130Z,53.20
2018-07-26T13:38:00.882Z,52.60
2018-07-26T13:41:11.248Z,53.10
2018-07-26T13:44:21.215Z,51.10
2018-07-26T13:47:30.988Z,49.40
2018-07-26T13:50:40.832Z,52.20
2018-07-26T13:53:51.221Z,52.30
2018-07-26T13:57:01.413Z,51.00
2018-07-26T14:00:13.375Z,51.10
2018-07-26T14:03:22.947Z,51.20
2018-07-26T14:06:32.774Z,50.40
2018-07-26T14:09:42.779Z,50.50
2018-07-26T14:35:02.019Z,49.40
2018-07-26T14:38:12.297Z,50.20
2018-07-26T14:41:23.085Z,49.00
2018-07-26T14:44:32.655Z,48.90
2018-07-26T14:47:43.079Z,49.70
